sensor_id;sensor_type;location;lat;lon;timestamp;P1;durP1;ratioP1;P2;durP2;ratioP2
39104;SDS011;46464;51.154;13.812;2022-11-20T00:01:19;22.87;;;14.10;;
39104;SDS011;46464;51.154;13.812;2022-11-20T00:03:47;26.90;;;14.97;;
39104;SDS011;46464;51.154;13.812;2022-11-20T00:06:15;21.10;;;13.95;;
39104;SDS011;46464;51.154;13.812;2022-11-20T00:08:43;27.07;;;14.40;;
39104;SDS011;46464;51.154;13.812;2022-11-20T00:11:11;23.07;;;13.67;;
39104;SDS011;46464;51.154;13.812;2022-11-20T00:13:43;26.63;;;14.27;;
39104;SDS011;46464;51.154;13.812;2022-11-20T00:16:11;25.60;;;14.93;;
39104;SDS011;46464;51.154;13.812;2022-11-20T00:18:41;27.57;;;15.40;;
39104;SDS011;46464;51.154;13.812;2022-11-20T00:21:12;27.27;;;15.70;;
39104;SDS011;46464;51.154;13.812;2022-11-20T00:23:41;30.27;;;16.23;;
39104;SDS011;46464;51.154;13.812;2022-11-20T00:26:09;27.20;;;15.53;;
39104;SDS011;46464;51.154;13.812;2022-11-20T00:28:38;28.03;;;15.73;;
39104;SDS011;46464;51.154;13.812;2022-11-20T00:31:06;26.75;;;15.68;;
39104;SDS011;46464;51.154;13.812;2022-11-20T00:33:34;27.10;;;16.03;;
39104;SDS011;46464;51.154;13.812;2022-11-20T00:36:01;31.20;;;17.13;;
39104;SDS011;46464;51.154;13.812;2022-11-20T00:38:30;30.40;;;17.00;;
39104;SDS011;46464;51.154;13.812;2022-11-20T00:40:58;27.70;;;16.20;;
39104;SDS011;46464;51.154;13.812;2022-11-20T00:43:25;27.37;;;16.30;;
39104;SDS011;46464;51.154;13.812;2022-11-20T00:45:59;25.67;;;14.20;;
39104;SDS011;46464;51.154;13.812;2022-11-20T00:48:27;26.60;;;15.60;;
39104;SDS011;46464;51.154;13.812;2022-11-20T00:50:54;29.87;;;16.40;;
39104;SDS011;46464;51.154;13.812;2022-11-20T00:53:21;29.33;;;15.20;;
39104;SDS011;46464;51.154;13.812;2022-11-20T00:58:32;28.70;;;16.00;;
39104;SDS011;46464;51.154;13.812;2022-11-20T01:01:01;30.47;;;16.13;;
39104;SDS011;46464;51.154;13.812;2022-11-20T01:03:33;33.13;;;17.27;;
39104;SDS011;46464;51.154;13.812;2022-11-20T01:06:02;34.23;;;19.30;;
39104;SDS011;46464;51.154;13.812;2022-11-20T01:08:33;33.10;;;18.10;;
39104;SDS011;46464;51.154;13.812;2022-11-20T01:11:01;35.33;;;17.93;;
39104;SDS011;46464;51.154;13.812;2022-11-20T01:13:30;31.60;;;17.40;;
39104;SDS011;46464;51.154;13.812;2022-11-20T01:16:10;31.03;;;16.43;;
39104;SDS011;46464;51.154;13.812;2022-11-20T01:18:40;30.92;;;16.67;;
39104;SDS011;46464;51.154;13.812;2022-11-20T01:21:14;33.73;;;17.53;;
39104;SDS011;46464;51.154;13.812;2022-11-20T01:23:42;30.30;;;18.00;;
39104;SDS011;46464;51.154;13.812;2022-11-20T01:26:11;33.27;;;18.30;;
39104;SDS011;46464;51.154;13.812;2022-11-20T01:28:39;29.87;;;15.27;;
39104;SDS011;46464;51.154;13.812;2022-11-20T01:31:26;27.50;;;16.13;;
39104;SDS011;46464;51.154;13.812;2022-11-20T01:33:58;32.87;;;17.40;;
39104;SDS011;46464;51.154;13.812;2022-11-20T01:36:27;34.47;;;19.03;;
39104;SDS011;46464;51.154;13.812;2022-11-20T01:38:56;33.33;;;17.67;;
39104;SDS011;46464;51.154;13.812;2022-11-20T01:41:25;30.67;;;17.27;;
39104;SDS011;46464;51.154;13.812;2022-11-20T01:44:13;31.83;;;16.83;;
39104;SDS011;46464;51.154;13.812;2022-11-20T01:47:00;34.47;;;17.97;;
39104;SDS011;46464;51.154;13.812;2022-11-20T01:49:33;32.77;;;17.67;;
39104;SDS011;46464;51.154;13.812;2022-11-20T01:52:04;36.97;;;18.77;;
39104;SDS011;46464;51.154;13.812;2022-11-20T01:54:38;34.23;;;17.83;;
39104;SDS011;46464;51.154;13.812;2022-11-20T01:59:43;33.60;;;16.83;;
39104;SDS011;46464;51.154;13.812;2022-11-20T02:02:14;36.70;;;18.57;;
39104;SDS011;46464;51.154;13.812;2022-11-20T02:07:07;34.90;;;17.77;;
39104;SDS011;46464;51.154;13.812;2022-11-20T02:09:34;34.03;;;18.17;;
39104;SDS011;46464;51.154;13.812;2022-11-20T02:12:01;37.50;;;18.52;;
39104;SDS011;46464;51.154;13.812;2022-11-20T02:14:28;33.83;;;18.33;;
39104;SDS011;46464;51.154;13.812;2022-11-20T02:16:55;32.30;;;17.40;;
39104;SDS011;46464;51.154;13.812;2022-11-20T02:24:36;33.80;;;19.43;;
39104;SDS011;46464;51.154;13.812;2022-11-20T02:27:10;37.35;;;18.58;;
39104;SDS011;46464;51.154;13.812;2022-11-20T02:29:46;36.23;;;18.60;;
39104;SDS011;46464;51.154;13.812;2022-11-20T02:32:26;33.40;;;17.73;;
39104;SDS011;46464;51.154;13.812;2022-11-20T02:34:55;32.87;;;17.50;;
39104;SDS011;46464;51.154;13.812;2022-11-20T02:37:21;32.65;;;18.70;;
39104;SDS011;46464;51.154;13.812;2022-11-20T02:39:50;35.57;;;18.70;;
39104;SDS011;46464;51.154;13.812;2022-11-20T02:42:17;33.17;;;18.20;;
39104;SDS011;46464;51.154;13.812;2022-11-20T02:44:44;33.10;;;19.77;;
39104;SDS011;46464;51.154;13.812;2022-11-20T02:47:11;34.50;;;18.30;;
39104;SDS011;46464;51.154;13.812;2022-11-20T02:49:38;29.50;;;17.08;;
39104;SDS011;46464;51.154;13.812;2022-11-20T02:52:04;31.65;;;17.98;;
39104;SDS011;46464;51.154;13.812;2022-11-20T02:54:31;33.05;;;18.40;;
39104;SDS011;46464;51.154;13.812;2022-11-20T02:56:57;32.83;;;18.35;;
39104;SDS011;46464;51.154;13.812;2022-11-20T02:59:24;31.05;;;17.70;;
39104;SDS011;46464;51.154;13.812;2022-11-20T03:01:50;31.30;;;17.40;;
39104;SDS011;46464;51.154;13.812;2022-11-20T03:04:17;32.42;;;17.98;;
39104;SDS011;46464;51.154;13.812;2022-11-20T03:06:44;32.30;;;16.95;;
39104;SDS011;46464;51.154;13.812;2022-11-20T03:09:10;32.97;;;17.67;;
39104;SDS011;46464;51.154;13.812;2022-11-20T03:11:37;33.25;;;18.35;;
39104;SDS011;46464;51.154;13.812;2022-11-20T03:14:04;33.75;;;17.55;;
39104;SDS011;46464;51.154;13.812;2022-11-20T03:16:31;34.03;;;18.67;;
39104;SDS011;46464;51.154;13.812;2022-11-20T03:18:59;35.00;;;18.00;;
39104;SDS011;46464;51.154;13.812;2022-11-20T03:21:26;32.63;;;17.63;;
39104;SDS011;46464;51.154;13.812;2022-11-20T03:23:53;34.42;;;17.50;;
39104;SDS011;46464;51.154;13.812;2022-11-20T03:26:21;34.93;;;19.03;;
39104;SDS011;46464;51.154;13.812;2022-11-20T03:28:51;29.60;;;16.43;;
39104;SDS011;46464;51.154;13.812;2022-11-20T03:31:20;29.73;;;16.47;;
39104;SDS011;46464;51.154;13.812;2022-11-20T03:33:49;30.47;;;17.47;;
39104;SDS011;46464;51.154;13.812;2022-11-20T03:36:17;33.77;;;19.07;;
39104;SDS011;46464;51.154;13.812;2022-11-20T03:38:44;34.37;;;18.80;;
39104;SDS011;46464;51.154;13.812;2022-11-20T03:41:18;33.33;;;17.98;;
39104;SDS011;46464;51.154;13.812;2022-11-20T03:43:48;34.23;;;17.83;;
39104;SDS011;46464;51.154;13.812;2022-11-20T03:46:16;30.73;;;16.73;;
39104;SDS011;46464;51.154;13.812;2022-11-20T03:48:43;33.63;;;17.57;;
39104;SDS011;46464;51.154;13.812;2022-11-20T03:51:20;33.13;;;17.10;;
39104;SDS011;46464;51.154;13.812;2022-11-20T03:53:49;34.47;;;17.90;;
39104;SDS011;46464;51.154;13.812;2022-11-20T03:56:18;34.27;;;18.00;;
39104;SDS011;46464;51.154;13.812;2022-11-20T03:58:47;33.77;;;17.50;;
39104;SDS011;46464;51.154;13.812;2022-11-20T04:01:18;35.75;;;18.60;;
39104;SDS011;46464;51.154;13.812;2022-11-20T04:03:46;33.93;;;17.27;;
39104;SDS011;46464;51.154;13.812;2022-11-20T04:06:14;30.57;;;16.80;;
39104;SDS011;46464;51.154;13.812;2022-11-20T04:08:44;33.13;;;17.10;;
39104;SDS011;46464;51.154;13.812;2022-11-20T04:11:18;35.10;;;17.27;;
39104;SDS011;46464;51.154;13.812;2022-11-20T04:13:59;36.17;;;18.47;;
39104;SDS011;46464;51.154;13.812;2022-11-20T04:16:28;30.23;;;17.43;;
39104;SDS011;46464;51.154;13.812;2022-11-20T04:18:57;31.33;;;17.20;;
39104;SDS011;46464;51.154;13.812;2022-11-20T04:21:26;33.10;;;17.40;;
39104;SDS011;46464;51.154;13.812;2022-11-20T04:23:53;32.47;;;17.30;;
39104;SDS011;46464;51.154;13.812;2022-11-20T04:26:20;29.63;;;16.80;;
39104;SDS011;46464;51.154;13.812;2022-11-20T04:28:49;32.33;;;17.87;;
39104;SDS011;46464;51.154;13.812;2022-11-20T04:33:46;34.63;;;16.93;;
39104;SDS011;46464;51.154;13.812;2022-11-20T04:36:14;29.23;;;15.50;;
39104;SDS011;46464;51.154;13.812;2022-11-20T04:38:45;31.30;;;17.17;;
39104;SDS011;46464;51.154;13.812;2022-11-20T04:41:19;29.87;;;16.30;;
39104;SDS011;46464;51.154;13.812;2022-11-20T04:43:50;31.67;;;17.03;;
39104;SDS011;46464;51.154;13.812;2022-11-20T04:46:19;35.20;;;18.20;;
39104;SDS011;46464;51.154;13.812;2022-11-20T04:48:47;33.47;;;17.43;;
39104;SDS011;46464;51.154;13.812;2022-11-20T04:51:14;34.83;;;16.77;;
39104;SDS011;46464;51.154;13.812;2022-11-20T04:53:41;31.50;;;16.57;;
39104;SDS011;46464;51.154;13.812;2022-11-20T04:56:09;34.87;;;17.17;;
39104;SDS011;46464;51.154;13.812;2022-11-20T04:58:37;30.53;;;16.83;;
39104;SDS011;46464;51.154;13.812;2022-11-20T05:01:05;29.47;;;15.57;;
39104;SDS011;46464;51.154;13.812;2022-11-20T05:03:35;36.27;;;18.23;;
39104;SDS011;46464;51.154;13.812;2022-11-20T05:06:08;29.10;;;16.63;;
39104;SDS011;46464;51.154;13.812;2022-11-20T05:08:36;30.03;;;17.53;;
39104;SDS011;46464;51.154;13.812;2022-11-20T05:13:34;31.67;;;16.90;;
39104;SDS011;46464;51.154;13.812;2022-11-20T05:18:32;34.17;;;17.17;;
39104;SDS011;46464;51.154;13.812;2022-11-20T05:21:00;31.93;;;17.20;;
39104;SDS011;46464;51.154;13.812;2022-11-20T05:23:27;36.45;;;17.42;;
39104;SDS011;46464;51.154;13.812;2022-11-20T05:25:55;34.37;;;17.90;;
39104;SDS011;46464;51.154;13.812;2022-11-20T05:28:25;35.57;;;18.27;;
39104;SDS011;46464;51.154;13.812;2022-11-20T05:30:53;37.03;;;18.77;;
39104;SDS011;46464;51.154;13.812;2022-11-20T05:33:19;32.80;;;17.33;;
39104;SDS011;46464;51.154;13.812;2022-11-20T05:35:46;33.97;;;17.57;;
39104;SDS011;46464;51.154;13.812;2022-11-20T05:38:14;32.33;;;18.40;;
39104;SDS011;46464;51.154;13.812;2022-11-20T05:40:41;34.20;;;18.33;;
39104;SDS011;46464;51.154;13.812;2022-11-20T05:43:08;29.92;;;16.08;;
39104;SDS011;46464;51.154;13.812;2022-11-20T05:45:34;33.53;;;17.20;;
39104;SDS011;46464;51.154;13.812;2022-11-20T05:48:01;32.95;;;18.00;;
39104;SDS011;46464;51.154;13.812;2022-11-20T05:50:28;32.88;;;16.55;;
39104;SDS011;46464;51.154;13.812;2022-11-20T05:52:54;33.17;;;17.65;;
39104;SDS011;46464;51.154;13.812;2022-11-20T05:55:21;33.90;;;17.30;;
39104;SDS011;46464;51.154;13.812;2022-11-20T05:57:47;31.75;;;17.73;;
39104;SDS011;46464;51.154;13.812;2022-11-20T06:00:14;33.20;;;17.05;;
39104;SDS011;46464;51.154;13.812;2022-11-20T06:02:41;34.73;;;18.07;;
39104;SDS011;46464;51.154;13.812;2022-11-20T06:05:08;35.60;;;18.33;;
39104;SDS011;46464;51.154;13.812;2022-11-20T06:07:34;34.50;;;18.23;;
39104;SDS011;46464;51.154;13.812;2022-11-20T06:10:01;33.63;;;18.80;;
39104;SDS011;46464;51.154;13.812;2022-11-20T06:12:28;34.55;;;18.27;;
39104;SDS011;46464;51.154;13.812;2022-11-20T06:14:54;32.78;;;18.65;;
39104;SDS011;46464;51.154;13.812;2022-11-20T06:17:21;34.28;;;18.13;;
39104;SDS011;46464;51.154;13.812;2022-11-20T06:19:47;33.22;;;18.55;;
39104;SDS011;46464;51.154;13.812;2022-11-20T06:22:14;30.67;;;15.98;;
39104;SDS011;46464;51.154;13.812;2022-11-20T06:24:41;34.63;;;17.80;;
39104;SDS011;46464;51.154;13.812;2022-11-20T06:27:07;31.45;;;16.90;;
39104;SDS011;46464;51.154;13.812;2022-11-20T06:29:34;35.92;;;18.17;;
39104;SDS011;46464;51.154;13.812;2022-11-20T06:32:01;33.08;;;18.20;;
39104;SDS011;46464;51.154;13.812;2022-11-20T06:36:54;32.92;;;16.60;;
39104;SDS011;46464;51.154;13.812;2022-11-20T06:39:20;32.75;;;17.17;;
39104;SDS011;46464;51.154;13.812;2022-11-20T06:46:40;32.65;;;15.77;;
39104;SDS011;46464;51.154;13.812;2022-11-20T06:49:07;36.30;;;18.15;;
39104;SDS011;46464;51.154;13.812;2022-11-20T06:51:33;37.22;;;18.30;;
39104;SDS011;46464;51.154;13.812;2022-11-20T06:54:00;32.65;;;17.55;;
39104;SDS011;46464;51.154;13.812;2022-11-20T06:56:27;40.50;;;18.77;;
39104;SDS011;46464;51.154;13.812;2022-11-20T06:58:54;37.33;;;18.73;;
39104;SDS011;46464;51.154;13.812;2022-11-20T07:01:20;29.20;;;14.88;;
39104;SDS011;46464;51.154;13.812;2022-11-20T07:03:48;35.72;;;19.08;;
39104;SDS011;46464;51.154;13.812;2022-11-20T07:06:19;40.43;;;21.13;;
39104;SDS011;46464;51.154;13.812;2022-11-20T07:08:46;40.53;;;21.13;;
39104;SDS011;46464;51.154;13.812;2022-11-20T07:11:13;41.30;;;20.17;;
39104;SDS011;46464;51.154;13.812;2022-11-20T07:13:39;40.15;;;20.73;;
39104;SDS011;46464;51.154;13.812;2022-11-20T07:16:06;42.08;;;22.50;;
39104;SDS011;46464;51.154;13.812;2022-11-20T07:18:34;46.87;;;22.03;;
39104;SDS011;46464;51.154;13.812;2022-11-20T07:21:05;42.33;;;22.77;;
39104;SDS011;46464;51.154;13.812;2022-11-20T07:23:34;38.23;;;21.37;;
39104;SDS011;46464;51.154;13.812;2022-11-20T07:26:04;39.33;;;20.70;;
39104;SDS011;46464;51.154;13.812;2022-11-20T07:28:35;40.97;;;21.07;;
39104;SDS011;46464;51.154;13.812;2022-11-20T07:31:02;40.50;;;21.13;;
39104;SDS011;46464;51.154;13.812;2022-11-20T07:33:29;38.17;;;20.57;;
39104;SDS011;46464;51.154;13.812;2022-11-20T07:35:55;47.38;;;22.90;;
39104;SDS011;46464;51.154;13.812;2022-11-20T07:38:25;40.93;;;19.87;;
39104;SDS011;46464;51.154;13.812;2022-11-20T07:40:54;42.20;;;23.50;;
39104;SDS011;46464;51.154;13.812;2022-11-20T07:43:22;42.70;;;22.17;;
39104;SDS011;46464;51.154;13.812;2022-11-20T07:45:50;45.43;;;22.90;;
39104;SDS011;46464;51.154;13.812;2022-11-20T07:48:16;45.65;;;23.90;;
39104;SDS011;46464;51.154;13.812;2022-11-20T07:50:43;38.78;;;22.10;;
39104;SDS011;46464;51.154;13.812;2022-11-20T07:53:09;44.90;;;23.80;;
39104;SDS011;46464;51.154;13.812;2022-11-20T07:55:36;40.65;;;21.10;;
39104;SDS011;46464;51.154;13.812;2022-11-20T07:58:03;45.70;;;22.10;;
39104;SDS011;46464;51.154;13.812;2022-11-20T08:00:29;42.28;;;23.42;;
39104;SDS011;46464;51.154;13.812;2022-11-20T08:02:56;42.67;;;25.25;;
39104;SDS011;46464;51.154;13.812;2022-11-20T08:05:22;39.10;;;22.83;;
39104;SDS011;46464;51.154;13.812;2022-11-20T08:07:49;39.75;;;21.80;;
39104;SDS011;46464;51.154;13.812;2022-11-20T08:10:16;42.35;;;23.40;;
39104;SDS011;46464;51.154;13.812;2022-11-20T08:12:49;45.22;;;22.92;;
39104;SDS011;46464;51.154;13.812;2022-11-20T08:15:37;40.93;;;21.30;;
39104;SDS011;46464;51.154;13.812;2022-11-20T08:18:09;43.63;;;23.30;;
39104;SDS011;46464;51.154;13.812;2022-11-20T08:20:58;44.43;;;22.97;;
39104;SDS011;46464;51.154;13.812;2022-11-20T08:23:28;43.73;;;22.80;;
39104;SDS011;46464;51.154;13.812;2022-11-20T08:25:54;43.67;;;23.25;;
39104;SDS011;46464;51.154;13.812;2022-11-20T08:28:21;47.28;;;23.10;;
39104;SDS011;46464;51.154;13.812;2022-11-20T08:30:48;43.92;;;23.48;;
39104;SDS011;46464;51.154;13.812;2022-11-20T08:33:16;45.40;;;24.53;;
39104;SDS011;46464;51.154;13.812;2022-11-20T08:35:43;50.23;;;25.07;;
39104;SDS011;46464;51.154;13.812;2022-11-20T08:38:10;50.97;;;24.48;;
39104;SDS011;46464;51.154;13.812;2022-11-20T08:40:36;48.28;;;24.60;;
39104;SDS011;46464;51.154;13.812;2022-11-20T08:43:03;45.38;;;24.77;;
39104;SDS011;46464;51.154;13.812;2022-11-20T08:45:30;45.60;;;24.13;;
39104;SDS011;46464;51.154;13.812;2022-11-20T08:48:00;43.07;;;23.20;;
39104;SDS011;46464;51.154;13.812;2022-11-20T08:50:29;47.20;;;23.83;;
39104;SDS011;46464;51.154;13.812;2022-11-20T08:53:05;43.83;;;25.80;;
39104;SDS011;46464;51.154;13.812;2022-11-20T08:55:32;47.80;;;25.90;;
39104;SDS011;46464;51.154;13.812;2022-11-20T08:58:03;41.50;;;22.90;;
39104;SDS011;46464;51.154;13.812;2022-11-20T09:00:30;42.67;;;24.03;;
39104;SDS011;46464;51.154;13.812;2022-11-20T09:02:58;40.37;;;23.17;;
39104;SDS011;46464;51.154;13.812;2022-11-20T09:05:27;37.70;;;21.27;;
39104;SDS011;46464;51.154;13.812;2022-11-20T09:07:57;34.40;;;20.52;;
39104;SDS011;46464;51.154;13.812;2022-11-20T09:10:24;34.33;;;20.17;;
39104;SDS011;46464;51.154;13.812;2022-11-20T09:12:51;34.67;;;20.37;;
39104;SDS011;46464;51.154;13.812;2022-11-20T09:15:18;30.80;;;18.80;;
39104;SDS011;46464;51.154;13.812;2022-11-20T09:20:24;31.53;;;19.27;;
39104;SDS011;46464;51.154;13.812;2022-11-20T09:22:56;29.90;;;18.00;;
39104;SDS011;46464;51.154;13.812;2022-11-20T09:26:10;31.27;;;18.53;;
39104;SDS011;46464;51.154;13.812;2022-11-20T09:28:38;29.00;;;17.13;;
39104;SDS011;46464;51.154;13.812;2022-11-20T09:33:32;31.13;;;18.80;;
39104;SDS011;46464;51.154;13.812;2022-11-20T09:35:59;29.90;;;17.98;;
39104;SDS011;46464;51.154;13.812;2022-11-20T09:38:25;29.08;;;18.42;;
39104;SDS011;46464;51.154;13.812;2022-11-20T09:40:56;28.92;;;18.48;;
39104;SDS011;46464;51.154;13.812;2022-11-20T09:46:22;30.93;;;19.17;;
39104;SDS011;46464;51.154;13.812;2022-11-20T09:51:47;25.50;;;16.17;;
39104;SDS011;46464;51.154;13.812;2022-11-20T09:54:20;23.48;;;15.10;;
39104;SDS011;46464;51.154;13.812;2022-11-20T09:56:56;22.17;;;13.73;;
39104;SDS011;46464;51.154;13.812;2022-11-20T09:59:39;20.95;;;13.38;;
39104;SDS011;46464;51.154;13.812;2022-11-20T10:02:15;20.77;;;12.87;;
39104;SDS011;46464;51.154;13.812;2022-11-20T10:04:53;21.35;;;12.43;;
39104;SDS011;46464;51.154;13.812;2022-11-20T10:07:44;18.77;;;11.77;;
39104;SDS011;46464;51.154;13.812;2022-11-20T10:11:09;21.58;;;12.25;;
39104;SDS011;46464;51.154;13.812;2022-11-20T10:13:34;21.58;;;11.75;;
39104;SDS011;46464;51.154;13.812;2022-11-20T10:19:34;17.63;;;11.85;;
39104;SDS011;46464;51.154;13.812;2022-11-20T10:22:32;18.63;;;12.00;;
39104;SDS011;46464;51.154;13.812;2022-11-20T10:25:16;18.50;;;13.00;;
39104;SDS011;46464;51.154;13.812;2022-11-20T10:30:35;20.17;;;12.27;;
39104;SDS011;46464;51.154;13.812;2022-11-20T10:33:13;21.30;;;11.80;;
39104;SDS011;46464;51.154;13.812;2022-11-20T10:35:44;17.85;;;12.00;;
39104;SDS011;46464;51.154;13.812;2022-11-20T10:38:19;18.48;;;11.60;;
39104;SDS011;46464;51.154;13.812;2022-11-20T10:40:53;21.60;;;12.70;;
39104;SDS011;46464;51.154;13.812;2022-11-20T10:43:47;20.95;;;12.98;;
39104;SDS011;46464;51.154;13.812;2022-11-20T10:46:17;17.20;;;11.47;;
39104;SDS011;46464;51.154;13.812;2022-11-20T10:48:47;16.98;;;10.77;;
39104;SDS011;46464;51.154;13.812;2022-11-20T11:02:18;18.95;;;10.85;;
39104;SDS011;46464;51.154;13.812;2022-11-20T11:04:47;18.20;;;10.57;;
39104;SDS011;46464;51.154;13.812;2022-11-20T11:07:21;17.38;;;10.73;;
39104;SDS011;46464;51.154;13.812;2022-11-20T11:09:55;16.52;;;10.27;;
39104;SDS011;46464;51.154;13.812;2022-11-20T11:12:26;17.52;;;10.50;;
39104;SDS011;46464;51.154;13.812;2022-11-20T11:14:55;18.70;;;11.68;;
39104;SDS011;46464;51.154;13.812;2022-11-20T11:22:30;19.88;;;10.73;;
39104;SDS011;46464;51.154;13.812;2022-11-20T11:24:58;17.23;;;10.88;;
39104;SDS011;46464;51.154;13.812;2022-11-20T11:30:01;18.67;;;12.27;;
39104;SDS011;46464;51.154;13.812;2022-11-20T11:32:38;16.73;;;11.43;;
39104;SDS011;46464;51.154;13.812;2022-11-20T11:35:05;20.55;;;12.07;;
39104;SDS011;46464;51.154;13.812;2022-11-20T11:37:44;140.57;;;17.55;;
39104;SDS011;46464;51.154;13.812;2022-11-20T11:40:13;20.58;;;12.00;;
39104;SDS011;46464;51.154;13.812;2022-11-20T11:42:59;34.93;;;14.20;;
39104;SDS011;46464;51.154;13.812;2022-11-20T11:45:30;18.50;;;11.85;;
39104;SDS011;46464;51.154;13.812;2022-11-20T11:47:58;16.83;;;12.10;;
39104;SDS011;46464;51.154;13.812;2022-11-20T11:50:29;19.90;;;12.07;;
39104;SDS011;46464;51.154;13.812;2022-11-20T11:53:08;20.60;;;12.80;;
39104;SDS011;46464;51.154;13.812;2022-11-20T11:55:43;18.13;;;11.73;;
39104;SDS011;46464;51.154;13.812;2022-11-20T12:04:03;13.90;;;9.05;;
39104;SDS011;46464;51.154;13.812;2022-11-20T12:06:36;12.73;;;7.32;;
39104;SDS011;46464;51.154;13.812;2022-11-20T12:09:09;13.57;;;8.45;;
39104;SDS011;46464;51.154;13.812;2022-11-20T12:11:38;12.40;;;7.32;;
39104;SDS011;46464;51.154;13.812;2022-11-20T12:16:50;14.47;;;8.70;;
39104;SDS011;46464;51.154;13.812;2022-11-20T12:19:18;14.07;;;8.43;;
39104;SDS011;46464;51.154;13.812;2022-11-20T12:21:58;17.63;;;10.30;;
39104;SDS011;46464;51.154;13.812;2022-11-20T12:30:02;16.80;;;7.57;;
39104;SDS011;46464;51.154;13.812;2022-11-20T12:43:23;14.25;;;9.35;;
39104;SDS011;46464;51.154;13.812;2022-11-20T12:49:10;17.75;;;11.02;;
39104;SDS011;46464;51.154;13.812;2022-11-20T12:57:15;14.07;;;8.73;;
39104;SDS011;46464;51.154;13.812;2022-11-20T13:05:19;15.05;;;8.75;;
39104;SDS011;46464;51.154;13.812;2022-11-20T13:07:51;16.85;;;10.02;;
39104;SDS011;46464;51.154;13.812;2022-11-20T13:19:13;15.13;;;9.90;;
39104;SDS011;46464;51.154;13.812;2022-11-20T13:21:42;16.23;;;9.05;;
39104;SDS011;46464;51.154;13.812;2022-11-20T13:26:46;14.10;;;8.27;;
39104;SDS011;46464;51.154;13.812;2022-11-20T13:29:17;16.33;;;8.80;;
39104;SDS011;46464;51.154;13.812;2022-11-20T13:31:45;15.13;;;9.20;;
39104;SDS011;46464;51.154;13.812;2022-11-20T13:34:24;15.13;;;9.80;;
39104;SDS011;46464;51.154;13.812;2022-11-20T13:36:56;16.10;;;9.90;;
39104;SDS011;46464;51.154;13.812;2022-11-20T13:39:24;25.67;;;13.30;;
39104;SDS011;46464;51.154;13.812;2022-11-20T13:42:35;35.13;;;17.70;;
39104;SDS011;46464;51.154;13.812;2022-11-20T13:44:47;20.57;;;10.93;;
39104;SDS011;46464;51.154;13.812;2022-11-20T13:47:19;14.82;;;8.63;;
39104;SDS011;46464;51.154;13.812;2022-11-20T13:49:46;26.30;;;13.30;;
39104;SDS011;46464;51.154;13.812;2022-11-20T14:02:39;16.67;;;10.03;;
39104;SDS011;46464;51.154;13.812;2022-11-20T14:05:11;23.93;;;11.83;;
39104;SDS011;46464;51.154;13.812;2022-11-20T14:07:45;22.83;;;12.70;;
39104;SDS011;46464;51.154;13.812;2022-11-20T14:10:24;25.00;;;14.27;;
39104;SDS011;46464;51.154;13.812;2022-11-20T14:12:57;18.47;;;11.53;;
39104;SDS011;46464;51.154;13.812;2022-11-20T14:17:51;28.88;;;15.30;;
39104;SDS011;46464;51.154;13.812;2022-11-20T14:20:18;28.52;;;13.93;;
39104;SDS011;46464;51.154;13.812;2022-11-20T14:22:49;16.50;;;9.82;;
39104;SDS011;46464;51.154;13.812;2022-11-20T14:25:20;14.10;;;9.20;;
39104;SDS011;46464;51.154;13.812;2022-11-20T14:27:57;14.93;;;9.43;;
39104;SDS011;46464;51.154;13.812;2022-11-20T14:30:27;13.75;;;8.95;;
39104;SDS011;46464;51.154;13.812;2022-11-20T14:33:02;15.48;;;9.05;;
39104;SDS011;46464;51.154;13.812;2022-11-20T14:35:31;14.05;;;9.73;;
39104;SDS011;46464;51.154;13.812;2022-11-20T14:38:03;14.00;;;8.77;;
39104;SDS011;46464;51.154;13.812;2022-11-20T14:40:34;15.73;;;9.37;;
39104;SDS011;46464;51.154;13.812;2022-11-20T14:43:14;14.30;;;8.50;;
39104;SDS011;46464;51.154;13.812;2022-11-20T14:45:42;17.40;;;10.63;;
39104;SDS011;46464;51.154;13.812;2022-11-20T14:48:15;29.17;;;15.60;;
39104;SDS011;46464;51.154;13.812;2022-11-20T14:50:42;18.83;;;10.38;;
39104;SDS011;46464;51.154;13.812;2022-11-20T14:53:22;18.90;;;10.83;;
39104;SDS011;46464;51.154;13.812;2022-11-20T14:56:10;13.07;;;7.70;;
39104;SDS011;46464;51.154;13.812;2022-11-20T14:58:37;13.75;;;8.90;;
39104;SDS011;46464;51.154;13.812;2022-11-20T15:01:05;15.27;;;8.43;;
39104;SDS011;46464;51.154;13.812;2022-11-20T15:03:34;14.87;;;9.03;;
39104;SDS011;46464;51.154;13.812;2022-11-20T15:06:03;14.03;;;8.90;;
39104;SDS011;46464;51.154;13.812;2022-11-20T15:09:04;15.03;;;8.53;;
39104;SDS011;46464;51.154;13.812;2022-11-20T15:11:39;16.80;;;10.03;;
39104;SDS011;46464;51.154;13.812;2022-11-20T15:14:16;15.57;;;9.50;;
39104;SDS011;46464;51.154;13.812;2022-11-20T15:16:43;16.60;;;10.80;;
39104;SDS011;46464;51.154;13.812;2022-11-20T15:19:16;14.40;;;10.05;;
39104;SDS011;46464;51.154;13.812;2022-11-20T15:21:44;15.13;;;9.30;;
39104;SDS011;46464;51.154;13.812;2022-11-20T15:24:10;17.98;;;10.10;;
39104;SDS011;46464;51.154;13.812;2022-11-20T15:26:37;19.85;;;11.00;;
39104;SDS011;46464;51.154;13.812;2022-11-20T15:29:13;20.20;;;12.00;;
39104;SDS011;46464;51.154;13.812;2022-11-20T15:31:44;22.67;;;12.33;;
39104;SDS011;46464;51.154;13.812;2022-11-20T15:36:39;19.03;;;11.87;;
39104;SDS011;46464;51.154;13.812;2022-11-20T15:39:06;21.97;;;13.60;;
39104;SDS011;46464;51.154;13.812;2022-11-20T15:41:37;20.88;;;13.75;;
39104;SDS011;46464;51.154;13.812;2022-11-20T15:46:31;20.70;;;12.83;;
39104;SDS011;46464;51.154;13.812;2022-11-20T15:49:05;22.30;;;13.30;;
39104;SDS011;46464;51.154;13.812;2022-11-20T15:51:35;21.50;;;13.63;;
39104;SDS011;46464;51.154;13.812;2022-11-20T15:54:13;23.33;;;13.60;;
39104;SDS011;46464;51.154;13.812;2022-11-20T15:56:47;21.20;;;13.27;;
39104;SDS011;46464;51.154;13.812;2022-11-20T15:59:14;20.53;;;13.13;;
39104;SDS011;46464;51.154;13.812;2022-11-20T16:04:11;22.90;;;14.13;;
39104;SDS011;46464;51.154;13.812;2022-11-20T16:06:39;23.63;;;15.40;;
39104;SDS011;46464;51.154;13.812;2022-11-20T16:09:06;23.30;;;14.80;;
39104;SDS011;46464;51.154;13.812;2022-11-20T16:11:33;20.53;;;12.90;;
39104;SDS011;46464;51.154;13.812;2022-11-20T16:14:03;20.20;;;12.40;;
39104;SDS011;46464;51.154;13.812;2022-11-20T16:16:48;19.67;;;11.95;;
39104;SDS011;46464;51.154;13.812;2022-11-20T16:19:15;24.48;;;15.10;;
39104;SDS011;46464;51.154;13.812;2022-11-20T16:21:43;23.30;;;15.43;;
39104;SDS011;46464;51.154;13.812;2022-11-20T16:26:39;24.37;;;15.37;;
39104;SDS011;46464;51.154;13.812;2022-11-20T16:29:06;22.10;;;14.87;;
39104;SDS011;46464;51.154;13.812;2022-11-20T16:31:33;22.33;;;13.93;;
39104;SDS011;46464;51.154;13.812;2022-11-20T16:36:35;20.30;;;13.23;;
39104;SDS011;46464;51.154;13.812;2022-11-20T16:39:02;16.30;;;10.82;;
39104;SDS011;46464;51.154;13.812;2022-11-20T16:41:30;23.50;;;15.23;;
39104;SDS011;46464;51.154;13.812;2022-11-20T16:43:59;23.10;;;15.60;;
39104;SDS011;46464;51.154;13.812;2022-11-20T16:46:30;26.37;;;16.23;;
39104;SDS011;46464;51.154;13.812;2022-11-20T16:48:59;27.93;;;17.90;;